Lester Prairie, Minnesota
Current Conditions -  °F | °C
As of 5:34 PM on Saturday 20 Dec 2014 (Local Time) from KGYL Reporting Station
Overcast Overcast  
Wind Chill: 24°   Ceiling: 1100
Heat Index: 31°   Visibility: 10mi
Dew Point: 29°   Wind: 8mph
Humidity: 90%   Direction: 150°SSE
Pressure: 30.09"   Gusts: NA
Location:  44.88°N, 94.04°W
Report Text: KGYL 202334Z AUTO 15007KT 10SM OVC011 00/M02 A3009 RMK AO2 T10031017
Loading
Personal Weather Stations






























Interactive Weather Map New forecast layout! Learn more

10-Day Weather Forecast

Advertisements
Track Severe Weather on mobile